createdAt,value
2018-09-12T00:01:01.427Z,13.29
2018-09-12T00:03:33.592Z,13.20
2018-09-12T00:06:05.706Z,13.06
2018-09-12T00:08:37.744Z,12.92
2018-09-12T00:11:09.827Z,12.96
2018-09-12T00:13:42.975Z,13.05
2018-09-12T00:16:15.011Z,13.01
2018-09-12T00:18:47.140Z,12.93
2018-09-12T00:21:19.236Z,12.82
2018-09-12T00:23:51.303Z,12.87
2018-09-12T00:26:23.375Z,12.74
2018-09-12T00:28:55.484Z,12.69
2018-09-12T00:31:27.560Z,12.78
2018-09-12T00:33:59.721Z,12.89
2018-09-12T00:36:31.769Z,12.93
2018-09-12T00:39:06.599Z,13.05
2018-09-12T00:41:38.691Z,13.01
2018-09-12T00:44:10.771Z,12.90
2018-09-12T00:46:42.816Z,12.91
2018-09-12T00:49:15.025Z,12.94
2018-09-12T00:51:47.068Z,12.87
2018-09-12T00:54:19.103Z,12.73
2018-09-12T00:56:51.195Z,12.61
2018-09-12T00:59:23.227Z,12.53
2018-09-12T01:01:55.403Z,12.61
2018-09-12T01:04:27.408Z,12.56
2018-09-12T01:06:59.443Z,12.49
2018-09-12T01:09:31.647Z,12.47
2018-09-12T01:12:03.724Z,12.46
2018-09-12T01:14:35.829Z,12.35
2018-09-12T01:17:07.950Z,12.30
2018-09-12T01:19:40.041Z,12.29
2018-09-12T01:22:12.189Z,12.25
2018-09-12T01:24:44.227Z,12.17
2018-09-12T01:27:16.303Z,12.24
2018-09-12T01:29:48.317Z,12.23
2018-09-12T01:32:20.415Z,12.34
2018-09-12T01:34:52.436Z,12.40
2018-09-12T01:37:24.580Z,12.41
2018-09-12T01:39:56.667Z,12.42
2018-09-12T01:42:28.750Z,12.24
2018-09-12T01:45:00.886Z,12.29
2018-09-12T01:47:32.948Z,12.19
2018-09-12T01:50:05.007Z,12.12
2018-09-12T01:52:37.063Z,12.07
2018-09-12T01:55:09.256Z,11.99
2018-09-12T01:57:41.285Z,11.94
2018-09-12T02:00:15.443Z,11.94
2018-09-12T02:02:48.155Z,12.02
2018-09-12T02:05:20.247Z,12.12
2018-09-12T02:07:52.285Z,12.09
2018-09-12T02:10:24.332Z,11.98
2018-09-12T02:12:56.594Z,12.00
2018-09-12T02:15:28.961Z,12.07
2018-09-12T02:18:01.003Z,11.97
2018-09-12T02:20:33.069Z,11.92
2018-09-12T02:23:05.123Z,12.06
2018-09-12T02:25:37.219Z,12.02
2018-09-12T02:28:09.266Z,12.02
2018-09-12T02:30:41.366Z,12.04
2018-09-12T02:33:13.404Z,12.09
2018-09-12T02:35:51.174Z,12.15
2018-09-12T02:38:23.211Z,12.09
2018-09-12T02:40:55.431Z,12.19
2018-09-12T02:43:27.492Z,12.21
2018-09-12T02:45:59.547Z,12.19
2018-09-12T02:48:31.600Z,12.06
2018-09-12T02:51:03.693Z,11.92
2018-09-12T02:53:35.751Z,11.97
2018-09-12T02:56:07.755Z,11.88
2018-09-12T02:58:39.816Z,11.83
2018-09-12T03:01:11.859Z,11.92
2018-09-12T03:03:43.971Z,11.84
2018-09-12T03:06:16.058Z,11.81
2018-09-12T03:08:48.091Z,11.83
2018-09-12T03:11:20.157Z,11.75
2018-09-12T03:13:52.183Z,11.70
2018-09-12T03:16:24.215Z,11.62
2018-09-12T03:18:56.365Z,11.63
2018-09-12T03:21:28.450Z,11.66
2018-09-12T03:24:00.599Z,11.66
2018-09-12T03:26:32.682Z,11.62
2018-09-12T03:29:04.780Z,11.63
2018-09-12T03:31:36.862Z,11.71
2018-09-12T03:34:08.912Z,11.73
2018-09-12T03:36:40.968Z,11.65
2018-09-12T03:39:13.043Z,11.70
2018-09-12T03:41:45.052Z,11.65
2018-09-12T03:44:17.150Z,11.57
2018-09-12T03:46:49.223Z,11.48
2018-09-12T03:49:21.313Z,11.54
2018-09-12T03:51:53.374Z,11.47
2018-09-12T03:54:25.464Z,11.45
2018-09-12T03:56:57.530Z,11.53
2018-09-12T03:59:29.613Z,11.57
2018-09-12T04:02:01.709Z,11.58
2018-09-12T04:04:33.727Z,11.56
2018-09-12T04:07:05.760Z,11.60
2018-09-12T04:09:37.857Z,11.63
2018-09-12T04:12:09.895Z,11.60
2018-09-12T04:14:42.005Z,11.66
2018-09-12T04:17:14.063Z,11.78
2018-09-12T04:19:46.176Z,11.77
2018-09-12T04:22:18.232Z,11.77
2018-09-12T04:24:50.326Z,11.77
2018-09-12T04:27:22.477Z,11.81
2018-09-12T04:29:55.133Z,11.89
2018-09-12T04:32:27.159Z,11.90
2018-09-12T04:34:59.227Z,11.89
2018-09-12T04:37:31.291Z,11.83
2018-09-12T04:40:03.400Z,11.93
2018-09-12T04:42:35.563Z,11.91
2018-09-12T04:45:07.579Z,11.82
2018-09-12T04:47:39.702Z,11.79
2018-09-12T04:50:11.793Z,11.77
2018-09-12T04:52:43.804Z,11.73
2018-09-12T04:55:15.901Z,11.75
2018-09-12T04:57:47.939Z,11.78
2018-09-12T05:00:20.012Z,11.86
2018-09-12T05:02:52.029Z,11.94
2018-09-12T05:05:24.877Z,12.04
2018-09-12T05:07:56.929Z,12.12
2018-09-12T05:10:28.994Z,12.11
2018-09-12T05:13:01.059Z,12.21
2018-09-12T05:15:33.147Z,12.28
2018-09-12T05:18:05.212Z,12.32
2018-09-12T05:20:37.267Z,12.35
2018-09-12T05:23:09.361Z,12.51
2018-09-12T05:25:41.407Z,12.51
2018-09-12T05:28:13.514Z,12.75
2018-09-12T05:30:45.528Z,12.95
2018-09-12T05:33:17.700Z,13.06
2018-09-12T05:35:49.836Z,13.18
2018-09-12T05:38:22.016Z,13.24
2018-09-12T05:40:54.120Z,13.29
2018-09-12T05:43:26.247Z,13.43
2018-09-12T05:45:58.374Z,13.54
2018-09-12T05:48:30.445Z,13.69
2018-09-12T05:51:02.509Z,13.68
2018-09-12T05:53:34.618Z,13.78
2018-09-12T05:56:06.751Z,13.95
2018-09-12T05:58:38.805Z,14.03
2018-09-12T06:01:10.934Z,14.07
2018-09-12T06:03:42.983Z,14.19
2018-09-12T06:06:15.102Z,14.28
2018-09-12T06:08:47.144Z,14.31
2018-09-12T06:11:19.236Z,14.41
2018-09-12T06:13:51.287Z,14.49
2018-09-12T06:16:23.332Z,14.53
2018-09-12T06:18:55.610Z,14.58
2018-09-12T06:21:27.759Z,14.67
2018-09-12T06:23:59.895Z,14.79
2018-09-12T06:26:32.079Z,14.87
2018-09-12T06:29:04.159Z,14.98
2018-09-12T06:31:36.293Z,15.03
2018-09-12T06:34:08.357Z,15.08
2018-09-12T06:36:40.427Z,15.15
2018-09-12T06:39:19.066Z,15.17
2018-09-12T06:41:51.134Z,15.34
2018-09-12T06:44:23.189Z,15.55
2018-09-12T06:46:55.192Z,16.46
2018-09-12T06:49:27.322Z,18.10
2018-09-12T06:51:59.409Z,19.04
2018-09-12T06:54:31.564Z,21.01
2018-09-12T06:57:03.668Z,22.67
2018-09-12T06:59:35.695Z,22.23
2018-09-12T07:02:07.775Z,22.41
2018-09-12T07:04:39.887Z,22.04
2018-09-12T07:07:11.938Z,22.06
2018-09-12T07:09:43.971Z,23.01
2018-09-12T07:12:16.079Z,23.70
2018-09-12T07:14:48.179Z,24.63
2018-09-12T07:17:20.266Z,25.96
2018-09-12T07:19:52.339Z,25.98
2018-09-12T07:22:24.390Z,25.32
2018-09-12T07:24:56.439Z,24.74
2018-09-12T07:27:28.563Z,24.78
2018-09-12T07:30:00.694Z,24.68
2018-09-12T07:32:32.764Z,25.01
2018-09-12T07:35:04.912Z,24.88
2018-09-12T07:37:37.393Z,25.39
2018-09-12T07:40:09.553Z,26.24
2018-09-12T07:42:41.692Z,25.98
2018-09-12T07:45:13.782Z,26.17
2018-09-12T07:47:45.850Z,25.95
2018-09-12T07:50:17.856Z,26.54
2018-09-12T07:52:49.987Z,26.77
2018-09-12T07:55:22.153Z,26.41
2018-09-12T07:57:54.118Z,27.26
2018-09-12T08:00:26.154Z,26.34
2018-09-12T08:03:00.171Z,26.13
2018-09-12T08:05:32.316Z,26.88
2018-09-12T08:08:04.531Z,26.98
2018-09-12T08:10:36.609Z,26.45
2018-09-12T08:13:08.616Z,26.33
2018-09-12T08:15:40.711Z,25.70
2018-09-12T08:18:12.743Z,25.43
2018-09-12T08:20:44.863Z,25.42
2018-09-12T08:23:16.892Z,25.30
2018-09-12T08:25:48.925Z,25.53
2018-09-12T08:28:20.975Z,26.07
2018-09-12T08:30:53.070Z,26.03
2018-09-12T08:33:25.306Z,25.45
2018-09-12T08:35:57.209Z,25.51
2018-09-12T08:38:29.342Z,25.48
2018-09-12T08:41:01.380Z,25.88
2018-09-12T08:43:33.491Z,25.81
2018-09-12T08:46:05.729Z,25.20
2018-09-12T08:48:37.788Z,24.37
2018-09-12T08:51:09.816Z,24.30
2018-09-12T08:53:41.870Z,24.80
2018-09-12T08:56:13.972Z,25.15
2018-09-12T08:58:46.018Z,25.76
2018-09-12T09:01:18.135Z,26.36
2018-09-12T09:03:50.220Z,26.42
2018-09-12T09:06:22.262Z,26.71
2018-09-12T09:08:54.556Z,26.67
2018-09-12T09:11:26.575Z,25.74
2018-09-12T09:13:58.647Z,26.74
2018-09-12T09:16:30.695Z,26.23
2018-09-12T09:19:02.839Z,25.69
2018-09-12T09:21:34.931Z,26.23
2018-09-12T09:24:06.990Z,26.13
2018-09-12T09:26:39.028Z,25.38
2018-09-12T09:29:11.082Z,26.28
2018-09-12T09:31:43.146Z,26.79
2018-09-12T09:34:15.190Z,26.75
2018-09-12T09:36:47.224Z,27.47
2018-09-12T09:39:19.240Z,27.63
2018-09-12T09:41:51.259Z,27.89
2018-09-12T09:44:23.263Z,28.25
2018-09-12T09:46:55.331Z,27.98
2018-09-12T09:49:27.361Z,28.15
2018-09-12T09:51:59.379Z,28.23
2018-09-12T09:54:31.447Z,28.65
2018-09-12T09:57:03.478Z,28.59
2018-09-12T09:59:35.736Z,28.07
2018-09-12T10:02:13.505Z,28.17
2018-09-12T10:04:51.239Z,29.22
2018-09-12T10:09:36.876Z,28.29
2018-09-12T10:12:08.916Z,28.50
2018-09-12T10:14:40.927Z,29.47
2018-09-12T10:17:12.987Z,28.62
2018-09-12T10:19:45.064Z,28.11
2018-09-12T10:22:17.120Z,27.85
2018-09-12T10:24:50.253Z,28.43
2018-09-12T10:27:22.305Z,29.19
2018-09-12T10:29:54.403Z,29.53
2018-09-12T10:32:26.449Z,28.51
2018-09-12T10:34:58.473Z,28.96
2018-09-12T10:37:30.596Z,29.14
2018-09-12T10:40:02.769Z,29.45
2018-09-12T10:42:34.815Z,29.52
2018-09-12T10:45:07.164Z,29.51
2018-09-12T10:47:39.207Z,29.59
2018-09-12T10:50:11.207Z,30.14
2018-09-12T10:52:43.309Z,29.96
2018-09-12T10:55:15.300Z,30.16
2018-09-12T10:57:47.293Z,31.02
2018-09-12T11:00:19.320Z,30.29
2018-09-12T11:02:51.361Z,30.81
2018-09-12T11:05:23.458Z,30.51
2018-09-12T11:07:55.584Z,30.74
2018-09-12T11:10:27.649Z,31.39
2018-09-12T11:12:59.755Z,31.42
2018-09-12T11:15:31.831Z,31.18
2018-09-12T11:18:04.044Z,30.29
2018-09-12T11:20:36.116Z,30.86
2018-09-12T11:23:08.179Z,31.24
2018-09-12T11:25:40.271Z,31.60
2018-09-12T11:28:12.410Z,31.77
2018-09-12T11:30:44.497Z,31.76
2018-09-12T11:33:16.590Z,32.07
2018-09-12T11:35:48.639Z,32.21
2018-09-12T11:38:20.707Z,32.69
2018-09-12T11:40:52.800Z,32.40
2018-09-12T11:43:24.895Z,32.63
2018-09-12T11:45:57.027Z,32.66
2018-09-12T11:48:29.413Z,31.67
2018-09-12T11:51:01.512Z,31.97
2018-09-12T11:53:33.682Z,32.52
2018-09-12T11:56:05.788Z,32.28
2018-09-12T11:58:37.876Z,32.37
2018-09-12T12:01:09.944Z,32.74
2018-09-12T12:03:41.961Z,32.92
2018-09-12T12:06:14.080Z,33.13
2018-09-12T12:08:47.138Z,32.77
2018-09-12T12:11:19.180Z,32.91
2018-09-12T12:13:51.223Z,33.03
2018-09-12T12:16:23.258Z,32.60
2018-09-12T12:18:55.302Z,32.83
2018-09-12T12:21:27.944Z,32.80
2018-09-12T12:24:00.241Z,33.12
2018-09-12T12:26:32.256Z,33.24
2018-09-12T12:29:05.197Z,33.66
2018-09-12T12:31:37.298Z,33.24
2018-09-12T12:34:09.402Z,32.88
2018-09-12T12:36:41.468Z,33.04
2018-09-12T12:39:13.627Z,33.28
2018-09-12T12:41:45.665Z,32.93
2018-09-12T12:44:17.747Z,32.81
2018-09-12T12:46:49.774Z,33.12
2018-09-12T12:49:21.849Z,33.28
2018-09-12T12:51:53.956Z,32.77
2018-09-12T12:54:25.982Z,33.14
2018-09-12T12:56:58.032Z,33.18
2018-09-12T12:59:30.292Z,33.31
2018-09-12T13:02:02.350Z,33.29
2018-09-12T13:04:34.396Z,33.33
2018-09-12T13:07:06.436Z,33.38
2018-09-12T13:09:38.497Z,33.85
2018-09-12T13:12:10.592Z,34.38
2018-09-12T13:14:42.739Z,35.17
2018-09-12T13:17:14.694Z,35.96
2018-09-12T13:19:46.781Z,35.41
2018-09-12T13:22:18.785Z,35.86
2018-09-12T13:24:50.835Z,36.66
2018-09-12T13:27:22.894Z,37.95
2018-09-12T13:29:54.924Z,37.12
2018-09-12T13:32:27.298Z,36.04
2018-09-12T13:34:59.383Z,36.86
2018-09-12T13:37:31.424Z,38.07
2018-09-12T13:40:03.514Z,37.73
2018-09-12T13:42:35.660Z,36.19
2018-09-12T13:45:07.759Z,36.78
2018-09-12T13:47:41.322Z,35.68
2018-09-12T13:50:15.409Z,36.73
2018-09-12T13:52:47.468Z,36.86
2018-09-12T13:55:20.744Z,36.83
2018-09-12T13:57:52.804Z,36.78
2018-09-12T14:00:29.231Z,37.03
2018-09-12T14:03:02.487Z,36.93
2018-09-12T14:05:34.532Z,36.62
2018-09-12T14:08:06.568Z,35.24
2018-09-12T14:10:38.617Z,36.04
2018-09-12T14:13:10.685Z,36.21
2018-09-12T14:15:42.860Z,36.66
2018-09-12T14:18:14.909Z,35.74
2018-09-12T14:20:46.992Z,35.59
2018-09-12T14:23:19.033Z,36.80
2018-09-12T14:25:51.105Z,36.08
2018-09-12T14:28:23.172Z,36.56
2018-09-12T14:30:55.210Z,37.81
2018-09-12T14:33:27.272Z,38.22
2018-09-12T14:35:59.320Z,38.07
2018-09-12T14:38:31.474Z,37.22
2018-09-12T14:41:03.581Z,36.68
2018-09-12T14:43:35.605Z,38.06
2018-09-12T14:46:07.709Z,36.54
2018-09-12T14:48:39.737Z,36.15
2018-09-12T14:51:11.869Z,36.11
2018-09-12T14:53:43.936Z,36.06
2018-09-12T14:56:16.020Z,37.43
2018-09-12T14:58:48.066Z,37.24
2018-09-12T15:01:20.119Z,36.68
2018-09-12T15:03:52.191Z,36.90
2018-09-12T15:06:24.258Z,37.36
2018-09-12T15:08:59.878Z,36.92
2018-09-12T15:11:31.932Z,37.01
2018-09-12T15:14:04.073Z,36.90
2018-09-12T15:16:36.125Z,36.67
2018-09-12T15:19:08.171Z,35.92
2018-09-12T15:21:40.226Z,34.24
2018-09-12T15:24:12.299Z,33.21
2018-09-12T15:26:44.325Z,32.89
2018-09-12T15:29:16.366Z,32.51
2018-09-12T15:31:48.518Z,32.09
2018-09-12T15:34:20.548Z,31.71
2018-09-12T15:36:52.593Z,31.60
2018-09-12T15:39:24.630Z,31.29
2018-09-12T15:41:56.708Z,31.53
2018-09-12T15:44:28.763Z,31.27
2018-09-12T15:47:00.851Z,30.82
2018-09-12T15:49:32.852Z,30.77
2018-09-12T15:52:05.215Z,30.62
2018-09-12T15:54:37.696Z,30.19
2018-09-12T15:57:09.905Z,30.14
2018-09-12T15:59:42.036Z,30.22
2018-09-12T16:02:15.188Z,30.19
2018-09-12T16:04:47.340Z,30.07
2018-09-12T16:07:19.497Z,29.95
2018-09-12T16:09:51.633Z,29.85
2018-09-12T16:12:23.697Z,29.80
2018-09-12T16:14:55.815Z,29.76
2018-09-12T16:17:27.961Z,29.72
2018-09-12T16:20:00.001Z,29.50
2018-09-12T16:22:32.043Z,29.53
2018-09-12T16:25:04.136Z,29.42
2018-09-12T16:27:36.811Z,29.21
2018-09-12T16:30:08.828Z,29.02
2018-09-12T16:32:40.952Z,28.89
2018-09-12T16:35:12.970Z,28.84
2018-09-12T16:37:45.026Z,28.77
2018-09-12T16:40:17.101Z,28.80
2018-09-12T16:42:49.435Z,28.59
2018-09-12T16:45:21.606Z,28.47
2018-09-12T16:47:54.873Z,28.30
2018-09-12T16:50:29.035Z,28.27
2018-09-12T16:53:01.291Z,28.04
2018-09-12T16:55:33.725Z,27.83
2018-09-12T16:58:06.883Z,27.61
2018-09-12T17:00:39.697Z,27.52
2018-09-12T17:03:12.263Z,27.46
2018-09-12T17:05:44.491Z,27.30
2018-09-12T17:08:18.964Z,27.06
2018-09-12T17:10:52.186Z,26.68
2018-09-12T17:13:25.690Z,26.40
2018-09-12T17:15:58.466Z,26.27
2018-09-12T17:18:30.660Z,26.08
2018-09-12T17:21:03.109Z,25.85
2018-09-12T17:23:35.849Z,25.68
2018-09-12T17:26:08.983Z,25.49
2018-09-12T17:28:41.888Z,25.32
2018-09-12T17:31:14.223Z,25.21
2018-09-12T17:33:46.617Z,25.21
2018-09-12T17:36:20.214Z,25.03
2018-09-12T17:38:59.936Z,24.94
2018-09-12T17:41:32.105Z,24.82
2018-09-12T17:44:04.172Z,24.68
2018-09-12T17:46:36.187Z,24.58
2018-09-12T17:49:08.273Z,24.42
2018-09-12T17:51:40.345Z,24.31
2018-09-12T17:54:12.431Z,24.18
2018-09-12T17:56:44.519Z,24.18
2018-09-12T17:59:16.516Z,24.14
2018-09-12T18:01:48.551Z,24.08
2018-09-12T18:04:20.664Z,23.82
2018-09-12T18:06:52.699Z,23.53
2018-09-12T18:09:24.746Z,23.28
2018-09-12T18:11:56.744Z,23.22
2018-09-12T18:14:28.773Z,23.26
2018-09-12T18:17:00.765Z,23.12
2018-09-12T18:19:32.769Z,23.06
2018-09-12T18:22:04.829Z,22.98
2018-09-12T18:24:36.891Z,22.77
2018-09-12T18:27:08.951Z,22.56
2018-09-12T18:29:41.063Z,22.38
2018-09-12T18:32:13.103Z,22.22
2018-09-12T18:34:45.214Z,22.12
2018-09-12T18:37:17.269Z,21.99
2018-09-12T18:39:49.339Z,21.82
2018-09-12T18:42:21.443Z,21.71
2018-09-12T18:44:53.516Z,21.63
2018-09-12T18:47:25.809Z,21.55
2018-09-12T18:49:57.941Z,21.49
2018-09-12T18:52:30.161Z,21.37
2018-09-12T18:55:02.263Z,21.23
2018-09-12T18:57:34.409Z,21.16
2018-09-12T19:00:06.567Z,21.07
2018-09-12T19:02:38.711Z,20.93
2018-09-12T19:05:10.863Z,20.74
2018-09-12T19:07:42.954Z,20.63
2018-09-12T19:10:15.023Z,20.71
2018-09-12T19:12:47.150Z,20.69
2018-09-12T19:15:19.476Z,20.66
2018-09-12T19:17:51.635Z,20.49
2018-09-12T19:20:25.651Z,20.39
2018-09-12T19:22:57.786Z,20.21
2018-09-12T19:25:29.844Z,20.15
2018-09-12T19:28:01.907Z,20.06
2018-09-12T19:30:34.010Z,20.02
2018-09-12T19:33:06.073Z,19.86
2018-09-12T19:35:38.111Z,19.96
2018-09-12T19:38:10.203Z,19.86
2018-09-12T19:40:42.281Z,19.82
2018-09-12T19:43:14.336Z,19.90
2018-09-12T19:45:46.351Z,19.84
2018-09-12T19:48:18.363Z,19.82
2018-09-12T19:50:50.391Z,19.87
2018-09-12T19:53:22.517Z,19.82
2018-09-12T19:55:54.559Z,19.66
2018-09-12T19:58:26.629Z,19.68
2018-09-12T20:00:58.709Z,19.58
2018-09-12T20:03:30.773Z,19.49
2018-09-12T20:06:03.056Z,19.39
2018-09-12T20:08:35.143Z,19.37
2018-09-12T20:11:07.199Z,19.30
2018-09-12T20:13:39.272Z,19.23
2018-09-12T20:16:11.544Z,19.18
2018-09-12T20:18:43.483Z,19.13
2018-09-12T20:21:15.506Z,19.03
2018-09-12T20:23:47.693Z,18.94
2018-09-12T20:26:19.643Z,18.99
2018-09-12T20:28:51.683Z,18.92
2018-09-12T20:31:23.708Z,18.80
2018-09-12T20:33:55.755Z,18.74
2018-09-12T20:36:28.672Z,18.54
2018-09-12T20:39:00.742Z,18.56
2018-09-12T20:41:32.763Z,18.52
2018-09-12T20:44:04.800Z,18.48
2018-09-12T20:46:36.832Z,18.51
2018-09-12T20:49:08.915Z,18.44
2018-09-12T20:51:43.519Z,18.26
2018-09-12T20:54:16.262Z,18.05
2018-09-12T20:56:48.252Z,17.92
2018-09-12T20:59:20.304Z,18.02
2018-09-12T21:01:52.296Z,17.99
2018-09-12T21:04:24.330Z,17.95
2018-09-12T21:06:56.334Z,17.99
2018-09-12T21:09:28.374Z,18.01
2018-09-12T21:12:00.405Z,18.12
2018-09-12T21:14:32.487Z,18.01
2018-09-12T21:17:04.547Z,17.91
2018-09-12T21:19:36.582Z,17.93
2018-09-12T21:22:08.600Z,18.00
2018-09-12T21:24:40.623Z,17.94
2018-09-12T21:27:12.709Z,17.84
2018-09-12T21:29:44.735Z,17.77
2018-09-12T21:32:17.467Z,17.66
2018-09-12T21:34:49.483Z,17.57
2018-09-12T21:37:21.522Z,17.59
2018-09-12T21:39:53.544Z,17.45
2018-09-12T21:42:25.550Z,17.42
2018-09-12T21:44:57.575Z,17.43
2018-09-12T21:47:29.583Z,17.33
2018-09-12T21:50:01.687Z,17.26
2018-09-12T21:52:33.710Z,17.26
2018-09-12T21:55:05.773Z,17.17
2018-09-12T21:57:37.805Z,17.14
2018-09-12T22:00:09.932Z,17.01
2018-09-12T22:02:41.973Z,16.84
2018-09-12T22:05:13.982Z,16.74
2018-09-12T22:07:46.100Z,16.65
2018-09-12T22:10:18.128Z,16.60
2018-09-12T22:12:50.152Z,16.51
2018-09-12T22:15:22.197Z,16.57
2018-09-12T22:17:54.226Z,16.74
2018-09-12T22:20:26.237Z,16.82
2018-09-12T22:22:58.287Z,16.80
2018-09-12T22:25:30.355Z,16.66
2018-09-12T22:28:02.399Z,16.54
2018-09-12T22:30:34.404Z,16.45
2018-09-12T22:33:06.427Z,16.41
2018-09-12T22:35:38.432Z,16.39
2018-09-12T22:38:10.479Z,16.54
2018-09-12T22:40:42.535Z,16.55
2018-09-12T22:43:14.580Z,16.51
2018-09-12T22:45:46.567Z,16.37
2018-09-12T22:48:18.592Z,16.21
2018-09-12T22:50:50.696Z,16.28
2018-09-12T22:53:22.763Z,16.17
2018-09-12T22:55:54.856Z,16.14
2018-09-12T22:58:26.901Z,16.19
2018-09-12T23:00:58.911Z,16.24
2018-09-12T23:03:30.944Z,16.16
2018-09-12T23:06:02.983Z,16.03
2018-09-12T23:08:35.023Z,15.96
2018-09-12T23:11:07.044Z,15.97
2018-09-12T23:13:39.079Z,15.83
2018-09-12T23:16:11.099Z,15.72
2018-09-12T23:18:43.107Z,15.72
2018-09-12T23:21:15.128Z,15.58
2018-09-12T23:23:47.135Z,15.46
2018-09-12T23:26:19.174Z,15.54
2018-09-12T23:28:51.171Z,15.66
2018-09-12T23:31:23.226Z,15.77
2018-09-12T23:33:55.322Z,15.81
2018-09-12T23:36:27.358Z,15.69
2018-09-12T23:38:59.379Z,15.59
2018-09-12T23:41:31.400Z,15.49
2018-09-12T23:44:03.444Z,15.36
2018-09-12T23:46:35.460Z,15.27
2018-09-12T23:49:07.986Z,15.24
2018-09-12T23:51:40.011Z,15.21
2018-09-12T23:54:12.015Z,15.14
2018-09-12T23:56:44.083Z,15.05
2018-09-12T23:59:16.099Z,15.00
